Time;durP1;ratioP1;P1;durP2;ratioP2;P2;SDS_P1;SDS_P2;PMS_P1;PMS_P2;Temp;Humidity;BMP_temperature;BMP_pressure;BME280_temperature;BME280_humidity;BME280_pressure;Samples;Min_cycle;Max_cycle;Signal;HPM_P1;HPM_P2
2022/10/11 00:02:22;;;;;;;5.28;1.55;;;;;;;-145.23;100.00;58621.06;5042244;28;20238;-51
2022/10/11 00:04:50;;;;;;;5.85;1.60;;;;;;;-145.23;100.00;58621.06;5019189;28;20229;-52
2022/10/11 00:07:16;;;;;;;4.25;2.20;;;;;;;-145.23;100.00;58621.06;5023838;28;20283;-52
2022/10/11 00:09:43;;;;;;;4.10;2.08;;;;;;;-145.23;100.00;58621.06;5024429;28;20248;-51
2022/10/11 00:12:09;;;;;;;6.90;1.77;;;;;;;-145.23;100.00;58621.06;5025330;28;20290;-51
2022/10/11 00:14:36;;;;;;;3.13;2.05;;;;;;;-145.23;100.00;58621.06;5036329;28;20336;-52
2022/10/11 00:17:03;;;;;;;6.20;2.08;;;;;;;-145.23;100.00;58621.06;5022231;28;20233;-52
2022/10/11 00:19:29;;;;;;;3.53;1.33;;;;;;;-145.23;100.00;58621.06;5023408;28;20229;-52
2022/10/11 00:21:59;;;;;;;3.87;1.77;;;;;;;-145.23;100.00;58621.06;5020849;28;20278;-51
2022/10/11 00:24:26;;;;;;;4.22;1.65;;;;;;;-145.23;100.00;58621.06;5020370;28;20301;-52
2022/10/11 00:26:52;;;;;;;2.53;1.40;;;;;;;-145.23;100.00;58621.06;5037374;28;20248;-52
2022/10/11 00:29:18;;;;;;;2.83;1.77;;;;;;;-145.23;100.00;58621.06;5024946;28;20236;-53
2022/10/11 00:31:45;;;;;;;3.30;1.20;;;;;;;-145.23;100.00;58621.06;5019368;28;20237;-53
2022/10/11 00:34:12;;;;;;;2.13;1.40;;;;;;;-145.23;100.00;58621.06;5024452;28;20244;-52
2022/10/11 00:36:38;;;;;;;2.63;2.20;;;;;;;-145.23;100.00;58621.06;5017749;28;20229;-52
2022/10/11 00:39:06;;;;;;;4.03;1.45;;;;;;;-145.23;100.00;58621.06;5012366;28;20239;-51
2022/10/11 00:41:33;;;;;;;5.07;1.80;;;;;;;-145.23;100.00;58621.06;5025291;28;20320;-51
2022/10/11 00:44:11;;;;;;;2.03;1.57;;;;;;;-145.23;100.00;58621.06;5024016;28;20236;-52
2022/10/11 00:46:37;;;;;;;3.63;1.50;;;;;;;-145.23;100.00;58621.06;5020886;28;20239;-52
2022/10/11 00:49:09;;;;;;;6.20;2.00;;;;;;;-145.23;100.00;58621.06;5024723;28;20239;-51
2022/10/11 00:51:41;;;;;;;3.03;1.53;;;;;;;-145.23;100.00;58621.06;5033526;28;20246;-55
2022/10/11 00:54:12;;;;;;;3.57;1.70;;;;;;;-145.23;100.00;58621.06;5022340;28;20780;-52
2022/10/11 00:56:39;;;;;;;7.97;2.10;;;;;;;-145.23;100.00;58621.06;5026652;28;20614;-52
2022/10/11 00:59:11;;;;;;;5.17;1.67;;;;;;;-145.23;100.00;58621.06;5018737;28;20236;-54
2022/10/11 01:01:37;;;;;;;6.17;2.30;;;;;;;-145.23;100.00;58621.06;5023663;28;20343;-51
2022/10/11 01:04:04;;;;;;;5.33;2.33;;;;;;;-145.23;100.00;58621.06;5022297;28;20244;-52
2022/10/11 01:06:31;;;;;;;4.70;1.93;;;;;;;-145.23;100.00;58621.06;5021478;28;20232;-52
2022/10/11 01:08:57;;;;;;;6.00;1.80;;;;;;;-145.23;100.00;58621.06;5013491;28;20710;-52
2022/10/11 01:11:27;;;;;;;3.00;1.47;;;;;;;-145.23;100.00;58621.06;5019192;28;20291;-52
2022/10/11 01:14:07;;;;;;;4.47;1.77;;;;;;;-145.23;100.00;58621.06;5023290;28;20722;-51
2022/10/11 01:16:36;;;;;;;4.73;1.83;;;;;;;-145.23;100.00;58621.06;5023222;28;20324;-51
2022/10/11 01:19:11;;;;;;;4.17;1.70;;;;;;;-145.23;100.00;58621.06;5020362;28;20240;-51
2022/10/11 01:21:43;;;;;;;3.17;1.63;;;;;;;-145.23;100.00;58621.06;5027166;28;20231;-50
2022/10/11 01:24:32;;;;;;;8.83;1.70;;;;;;;-145.23;100.00;58621.06;5018083;28;20244;-51
2022/10/11 01:27:32;;;;;;;7.93;2.07;;;;;;;-145.23;100.00;58621.06;5012923;28;20725;-50
2022/10/11 01:30:13;;;;;;;9.10;2.23;;;;;;;-145.23;100.00;58621.06;5008393;28;20739;-52
2022/10/11 01:32:43;;;;;;;4.97;1.30;;;;;;;-145.23;100.00;58621.06;5019934;28;20231;-52
2022/10/11 01:35:16;;;;;;;8.40;1.30;;;;;;;-145.23;100.00;58621.06;5030445;28;20240;-50
2022/10/11 01:37:44;;;;;;;5.33;2.00;;;;;;;-145.23;100.00;58621.06;5040636;28;20236;-53
2022/10/11 01:40:14;;;;;;;8.37;1.93;;;;;;;-145.23;100.00;58621.06;5031285;28;20323;-51
2022/10/11 01:42:41;;;;;;;5.03;1.87;;;;;;;-145.23;100.00;58621.06;5026100;28;20228;-52
2022/10/11 01:45:11;;;;;;;5.97;2.67;;;;;;;-145.23;100.00;58621.06;5024542;28;20240;-51
2022/10/11 01:47:41;;;;;;;7.40;2.13;;;;;;;-145.23;100.00;58621.06;5038736;28;20236;-52
2022/10/11 01:50:43;;;;;;;9.07;1.77;;;;;;;-145.23;100.00;58621.06;5015965;28;20236;-52
2022/10/11 01:53:23;;;;;;;4.57;1.87;;;;;;;-145.23;100.00;58621.06;5026907;28;20235;-52
2022/10/11 01:55:54;;;;;;;6.63;2.20;;;;;;;-145.23;100.00;58621.06;5010351;28;20233;-52
2022/10/11 01:58:29;;;;;;;3.27;1.80;;;;;;;-145.23;100.00;58621.06;5018275;28;20282;-51
2022/10/11 02:01:02;;;;;;;7.67;1.93;;;;;;;-145.23;100.00;58621.06;5032993;28;20978;-51
2022/10/11 02:03:36;;;;;;;6.77;2.30;;;;;;;-145.23;100.00;58621.06;5039137;28;20231;-52
2022/10/11 02:06:07;;;;;;;8.27;2.27;;;;;;;-145.23;100.00;58621.06;4995794;28;20269;-52
2022/10/11 02:08:39;;;;;;;4.57;2.07;;;;;;;-145.23;100.00;58621.06;5022385;28;20710;-52
2022/10/11 02:11:09;;;;;;;7.20;1.90;;;;;;;-145.23;100.00;58621.06;5019860;28;20611;-51
2022/10/11 02:13:39;;;;;;;3.77;1.73;;;;;;;-145.23;100.00;58621.06;5016434;28;20257;-51
2022/10/11 02:16:09;;;;;;;8.23;2.30;;;;;;;-145.23;100.00;58621.06;5025246;28;20761;-53
2022/10/11 02:18:46;;;;;;;6.60;2.20;;;;;;;-145.23;100.00;58621.06;5023456;28;20224;-53
2022/10/11 02:21:15;;;;;;;7.83;1.50;;;;;;;-145.23;100.00;58621.06;5027789;28;21055;-53
2022/10/11 02:23:47;;;;;;;3.37;1.77;;;;;;;-145.23;100.00;58621.06;5015807;28;20244;-53
2022/10/11 02:26:17;;;;;;;8.70;2.83;;;;;;;-145.23;100.00;58621.06;4998903;28;20233;-51
2022/10/11 02:28:44;;;;;;;8.53;2.20;;;;;;;-145.23;100.00;58621.06;5005654;28;20611;-51
2022/10/11 02:31:12;;;;;;;4.03;1.83;;;;;;;-145.23;100.00;58621.06;5007488;28;20703;-52
2022/10/11 02:33:45;;;;;;;6.73;2.07;;;;;;;-145.23;100.00;58621.06;5019124;28;20236;-52
2022/10/11 02:36:16;;;;;;;6.57;1.63;;;;;;;-145.23;100.00;58621.06;5020900;28;20297;-52
2022/10/11 02:38:46;;;;;;;3.17;1.63;;;;;;;-145.23;100.00;58621.06;4998825;28;20229;-52
2022/10/11 02:41:16;;;;;;;5.83;1.97;;;;;;;-145.23;100.00;58621.06;5000259;28;20241;-52
2022/10/11 02:43:46;;;;;;;7.60;2.00;;;;;;;-145.23;100.00;58621.06;4997438;28;20241;-52
2022/10/11 02:46:14;;;;;;;8.27;2.40;;;;;;;-145.23;100.00;58621.06;5024428;28;20236;-52
2022/10/11 02:48:42;;;;;;;4.83;1.77;;;;;;;-145.23;100.00;58621.06;5020271;28;20261;-52
2022/10/11 02:51:12;;;;;;;4.03;2.20;;;;;;;-145.23;100.00;58621.06;5004706;28;20233;-52
2022/10/11 02:53:39;;;;;;;6.67;2.00;;;;;;;-145.23;100.00;58621.06;5000950;28;20243;-53
2022/10/11 02:56:06;;;;;;;8.37;2.50;;;;;;;-145.23;100.00;58621.06;5020285;28;20244;-52
2022/10/11 02:58:33;;;;;;;4.23;1.90;;;;;;;-145.23;100.00;58621.06;5006493;28;20237;-52
2022/10/11 03:01:00;;;;;;;9.40;2.40;;;;;;;-145.23;100.00;58621.06;5006982;28;20349;-51
2022/10/11 03:03:27;;;;;;;8.73;2.40;;;;;;;-145.23;100.00;58621.06;5024704;28;20232;-52
2022/10/11 03:05:59;;;;;;;4.87;1.77;;;;;;;-145.23;100.00;58621.06;5022384;28;20238;-53
2022/10/11 03:08:26;;;;;;;6.97;2.07;;;;;;;-145.23;100.00;58621.06;5029950;28;20257;-53
2022/10/11 03:10:54;;;;;;;3.60;1.83;;;;;;;-145.23;100.00;58621.06;5022858;28;20929;-53
2022/10/11 03:13:21;;;;;;;7.83;2.20;;;;;;;-145.23;100.00;58621.06;5022769;28;20244;-53
2022/10/11 03:15:49;;;;;;;6.43;2.00;;;;;;;-145.23;100.00;58621.06;5016963;28;20277;-53
2022/10/11 03:18:16;;;;;;;5.93;2.50;;;;;;;-145.23;100.00;58621.06;5014501;28;20601;-53
2022/10/11 03:20:43;;;;;;;4.70;1.80;;;;;;;-145.23;100.00;58621.06;5033473;28;20710;-53
2022/10/11 03:23:12;;;;;;;7.00;1.93;;;;;;;-145.23;100.00;58621.06;5029132;28;20239;-52
2022/10/11 03:25:39;;;;;;;4.90;1.70;;;;;;;-145.23;100.00;58621.06;5001614;28;20226;-54
2022/10/11 03:28:06;;;;;;;6.73;2.23;;;;;;;-145.23;100.00;58621.06;5006857;28;20228;-51
2022/10/11 03:30:33;;;;;;;5.80;2.30;;;;;;;-145.23;100.00;58621.06;5023928;28;20311;-52
2022/10/11 03:33:00;;;;;;;3.80;1.40;;;;;;;-145.23;100.00;58621.06;5015527;28;20233;-51
2022/10/11 03:35:27;;;;;;;10.97;1.90;;;;;;;-145.23;100.00;58621.06;5019067;28;20303;-52
2022/10/11 03:37:54;;;;;;;4.93;1.90;;;;;;;-145.23;100.00;58621.06;5023107;28;20240;-51
2022/10/11 03:40:22;;;;;;;4.80;1.87;;;;;;;-145.23;100.00;58621.06;5015720;28;20782;-52
2022/10/11 03:42:49;;;;;;;7.67;2.40;;;;;;;-145.23;100.00;58621.06;5019071;28;20279;-51
2022/10/11 03:45:16;;;;;;;9.57;2.63;;;;;;;-145.23;100.00;58621.06;5028247;28;20319;-50
2022/10/11 03:47:43;;;;;;;5.70;2.73;;;;;;;-145.23;100.00;58621.06;5006948;28;20268;-52
2022/10/11 03:50:10;;;;;;;4.13;1.40;;;;;;;-145.23;100.00;58621.06;4999205;28;20241;-51
2022/10/11 03:52:38;;;;;;;5.43;2.07;;;;;;;-145.23;100.00;58621.06;4996078;28;20611;-52
2022/10/11 03:55:08;;;;;;;11.70;2.60;;;;;;;-145.23;100.00;58621.06;5009663;28;20236;-52
2022/10/11 03:57:37;;;;;;;8.73;2.87;;;;;;;-145.23;100.00;58621.06;5019106;28;20237;-52
2022/10/11 04:00:05;;;;;;;6.03;2.27;;;;;;;-145.23;100.00;58621.06;5013988;28;20620;-51
2022/10/11 04:02:32;;;;;;;5.63;2.13;;;;;;;-145.23;100.00;58621.06;5027486;28;20252;-52
2022/10/11 04:04:59;;;;;;;7.60;2.30;;;;;;;-145.23;100.00;58621.06;5014196;28;20302;-52
2022/10/11 04:07:26;;;;;;;6.77;2.63;;;;;;;-145.23;100.00;58621.06;5022595;28;20583;-51
2022/10/11 04:09:55;;;;;;;9.00;3.03;;;;;;;-145.23;100.00;58621.06;5003913;28;20229;-51
2022/10/11 04:12:22;;;;;;;8.63;3.20;;;;;;;-145.23;100.00;58621.06;4993729;28;20233;-52
2022/10/11 04:14:51;;;;;;;11.00;2.30;;;;;;;-145.23;100.00;58621.06;4997986;28;20288;-51
2022/10/11 04:17:18;;;;;;;7.97;2.87;;;;;;;-145.23;100.00;58621.06;5006244;28;20241;-50
2022/10/11 04:19:45;;;;;;;6.50;2.27;;;;;;;-145.23;100.00;58621.06;5002719;28;20862;-51
2022/10/11 04:22:11;;;;;;;3.60;2.40;;;;;;;-145.23;100.00;58621.06;4997058;28;20685;-52
2022/10/11 04:24:38;;;;;;;7.47;2.63;;;;;;;-145.23;100.00;58621.06;5005075;28;20233;-54
2022/10/11 04:27:05;;;;;;;6.93;2.27;;;;;;;-145.23;100.00;58621.06;5025166;28;20236;-52
2022/10/11 04:29:32;;;;;;;6.83;2.87;;;;;;;-145.23;100.00;58621.06;5018305;28;20286;-51
2022/10/11 04:32:00;;;;;;;7.77;3.20;;;;;;;-145.23;100.00;58621.06;5021646;28;20808;-52
2022/10/11 04:34:27;;;;;;;10.90;2.77;;;;;;;-145.23;100.00;58621.06;5023205;28;20929;-51
2022/10/11 04:36:54;;;;;;;8.70;2.97;;;;;;;-145.23;100.00;58621.06;5024635;28;20251;-52
2022/10/11 04:39:21;;;;;;;4.63;2.60;;;;;;;-145.23;100.00;58621.06;5022200;28;20252;-51
2022/10/11 04:41:48;;;;;;;13.33;3.00;;;;;;;-145.23;100.00;58621.06;5003017;28;20225;-52
2022/10/11 04:44:15;;;;;;;8.33;3.23;;;;;;;-145.23;100.00;58621.06;4993434;28;20771;-51
2022/10/11 04:46:42;;;;;;;7.83;2.77;;;;;;;-145.23;100.00;58621.06;5000277;28;20244;-51
2022/10/11 04:49:10;;;;;;;6.47;2.20;;;;;;;-145.23;100.00;58621.06;5008269;28;20344;-53
2022/10/11 04:51:37;;;;;;;4.63;2.50;;;;;;;-145.23;100.00;58621.06;5014538;28;20355;-52
2022/10/11 04:54:04;;;;;;;10.37;3.07;;;;;;;-145.23;100.00;58621.06;5002896;28;20315;-51
2022/10/11 04:56:33;;;;;;;6.00;2.67;;;;;;;-145.23;100.00;58621.06;5019521;28;20237;-51
2022/10/11 04:59:00;;;;;;;6.30;3.03;;;;;;;-145.23;100.00;58621.06;5022455;28;20314;-51
2022/10/11 05:01:27;;;;;;;6.13;3.20;;;;;;;-145.23;100.00;58621.06;5021180;28;20267;-52
2022/10/11 05:03:54;;;;;;;8.33;3.27;;;;;;;-145.23;100.00;58621.06;5019784;28;20762;-52
2022/10/11 05:06:22;;;;;;;8.33;2.73;;;;;;;-145.23;100.00;58621.06;5014940;28;20251;-52
2022/10/11 05:08:49;;;;;;;6.53;3.30;;;;;;;-145.23;100.00;58621.06;5015828;28;20652;-52
2022/10/11 05:11:17;;;;;;;5.27;3.13;;;;;;;-145.23;100.00;58621.06;5019761;28;20792;-52
2022/10/11 05:13:44;;;;;;;6.17;3.30;;;;;;;-145.23;100.00;58621.06;5022541;28;20650;-51
2022/10/11 05:16:12;;;;;;;5.67;3.17;;;;;;;-145.23;100.00;58621.06;5020949;28;20232;-53
2022/10/11 05:18:40;;;;;;;5.60;2.83;;;;;;;-145.23;100.00;58621.06;5024823;28;20239;-55
2022/10/11 05:21:09;;;;;;;7.80;2.97;;;;;;;-145.23;100.00;58621.06;5036579;28;20239;-52
2022/10/11 05:23:37;;;;;;;8.47;2.80;;;;;;;-145.23;100.00;58621.06;5020021;28;20242;-51
2022/10/11 05:26:04;;;;;;;6.43;3.50;;;;;;;-145.23;100.00;58621.06;5006128;28;20439;-51
2022/10/11 05:28:31;;;;;;;7.47;3.47;;;;;;;-145.23;100.00;58621.06;4999730;28;20233;-52
2022/10/11 05:30:58;;;;;;;9.40;3.53;;;;;;;-145.23;100.00;58621.06;5004843;28;20659;-52
2022/10/11 05:33:26;;;;;;;4.60;2.43;;;;;;;-145.23;100.00;58621.06;5006102;28;20225;-53
2022/10/11 05:35:53;;;;;;;7.40;3.07;;;;;;;-145.23;100.00;58621.06;5004636;28;20312;-51
2022/10/11 05:38:22;;;;;;;9.90;3.37;;;;;;;-145.23;100.00;58621.06;5025519;28;20263;-51
2022/10/11 05:40:51;;;;;;;4.83;3.80;;;;;;;-145.23;100.00;58621.06;5015675;28;20220;-52
2022/10/11 05:43:19;;;;;;;9.20;3.80;;;;;;;-145.23;100.00;58621.06;5025925;28;20248;-52
2022/10/11 05:45:46;;;;;;;11.50;3.57;;;;;;;-145.23;100.00;58621.06;5024791;28;20248;-51
2022/10/11 05:48:13;;;;;;;6.13;3.07;;;;;;;-145.23;100.00;58621.06;4998337;28;20266;-52
2022/10/11 05:50:40;;;;;;;4.77;3.07;;;;;;;-145.23;100.00;58621.06;5002703;28;20324;-53
2022/10/11 05:53:07;;;;;;;9.50;4.23;;;;;;;-145.23;100.00;58621.06;5025720;28;20657;-54
2022/10/11 05:55:36;;;;;;;5.20;3.20;;;;;;;-145.23;100.00;58621.06;5015491;28;20310;-51
2022/10/11 05:58:05;;;;;;;8.67;4.17;;;;;;;-145.23;100.00;58621.06;5024749;28;20293;-53
2022/10/11 06:00:32;;;;;;;6.87;2.80;;;;;;;-145.23;100.00;58621.06;5020620;28;20661;-53
2022/10/11 06:02:59;;;;;;;12.80;3.23;;;;;;;-145.23;100.00;58621.06;5019364;28;20255;-52
2022/10/11 06:05:26;;;;;;;6.57;3.40;;;;;;;-145.23;100.00;58621.06;5029225;28;20302;-52
2022/10/11 06:07:52;;;;;;;6.03;3.57;;;;;;;-145.23;100.00;58621.06;5007761;28;20230;-53
2022/10/11 06:10:19;;;;;;;5.93;2.90;;;;;;;-145.23;100.00;58621.06;5008853;28;20244;-53
2022/10/11 06:12:46;;;;;;;6.90;3.30;;;;;;;-145.23;100.00;58621.06;5031617;28;20878;-53
2022/10/11 06:15:14;;;;;;;6.20;3.33;;;;;;;-145.23;100.00;58621.06;5022008;28;20245;-52
2022/10/11 06:17:41;;;;;;;5.17;3.13;;;;;;;-145.23;100.00;58621.06;5021725;28;20305;-53
2022/10/11 06:20:10;;;;;;;12.47;4.07;;;;;;;-145.23;100.00;58621.06;5002026;28;20233;-52
2022/10/11 06:22:36;;;;;;;8.90;3.70;;;;;;;-145.23;100.00;58621.06;5015423;28;20225;-52
2022/10/11 06:25:04;;;;;;;9.50;4.53;;;;;;;-145.23;100.00;58621.06;5021160;28;20236;-53
2022/10/11 06:27:31;;;;;;;8.57;3.67;;;;;;;-145.23;100.00;58621.06;5016572;28;20345;-51
2022/10/11 06:29:58;;;;;;;7.40;4.03;;;;;;;-145.23;100.00;58621.06;5013246;28;20233;-53
2022/10/11 06:32:27;;;;;;;10.53;4.07;;;;;;;-145.23;100.00;58621.06;5023073;28;20252;-52
2022/10/11 06:34:53;;;;;;;10.37;4.00;;;;;;;-145.23;100.00;58621.06;5025020;28;20596;-52
2022/10/11 06:37:20;;;;;;;9.40;4.03;;;;;;;-145.23;100.00;58621.06;5024395;28;20738;-52
2022/10/11 06:39:47;;;;;;;7.07;3.63;;;;;;;-145.23;100.00;58621.06;5022051;28;20927;-52
2022/10/11 06:42:14;;;;;;;8.80;4.20;;;;;;;-145.23;100.00;58621.06;5022684;28;20236;-52
2022/10/11 06:44:41;;;;;;;6.87;3.80;;;;;;;-145.23;100.00;58621.06;5023167;28;20802;-55
2022/10/11 06:47:09;;;;;;;10.33;4.20;;;;;;;-145.23;100.00;58621.06;5025118;28;20308;-51
2022/10/11 06:49:37;;;;;;;9.53;4.00;;;;;;;-145.23;100.00;58621.06;5020726;28;20348;-52
2022/10/11 06:52:05;;;;;;;5.57;3.60;;;;;;;-145.23;100.00;58621.06;5019478;28;20241;-52
2022/10/11 06:54:32;;;;;;;8.77;3.90;;;;;;;-145.23;100.00;58621.06;5003518;28;20247;-51
2022/10/11 06:56:59;;;;;;;11.60;4.40;;;;;;;-145.23;100.00;58621.06;5019645;28;20247;-52
2022/10/11 06:59:26;;;;;;;9.13;4.30;;;;;;;-145.23;100.00;58621.06;5016676;28;20637;-52
2022/10/11 07:01:53;;;;;;;7.30;3.57;;;;;;;-145.23;100.00;58621.06;5035628;28;20248;-51
2022/10/11 07:04:19;;;;;;;4.57;3.33;;;;;;;-145.23;100.00;58621.06;5023735;28;20338;-52
2022/10/11 07:06:48;;;;;;;10.73;3.43;;;;;;;-145.23;100.00;58621.06;5033228;28;20310;-51
2022/10/11 07:09:15;;;;;;;7.87;3.67;;;;;;;-145.23;100.00;58621.06;5024247;28;20232;-51
2022/10/11 07:11:43;;;;;;;11.70;3.60;;;;;;;-145.23;100.00;58621.06;5023375;28;20236;-53
2022/10/11 07:14:09;;;;;;;9.70;4.23;;;;;;;-145.23;100.00;58621.06;5008858;28;20245;-53
2022/10/11 07:16:36;;;;;;;8.57;3.73;;;;;;;-145.23;100.00;58621.06;4991063;28;20229;-52
2022/10/11 07:19:05;;;;;;;9.60;3.93;;;;;;;-145.23;100.00;58621.06;4989808;28;20237;-52
2022/10/11 07:21:34;;;;;;;7.43;3.40;;;;;;;-145.23;100.00;58621.06;4994985;28;20233;-51
2022/10/11 07:24:02;;;;;;;8.80;4.00;;;;;;;-145.23;100.00;58621.06;4996508;28;20233;-52
2022/10/11 07:26:29;;;;;;;9.00;3.10;;;;;;;-145.23;100.00;58621.06;5008439;28;20233;-52
2022/10/11 07:28:56;;;;;;;6.97;3.00;;;;;;;-145.23;100.00;58621.06;5012133;28;20231;-52
2022/10/11 07:31:26;;;;;;;7.37;3.27;;;;;;;-145.23;100.00;58621.06;5016252;28;20264;-52
2022/10/11 07:33:54;;;;;;;8.37;3.20;;;;;;;-145.23;100.00;58621.06;5012019;28;20233;-51
2022/10/11 07:36:22;;;;;;;6.87;4.00;;;;;;;-145.23;100.00;58621.06;5005144;28;20384;-51
2022/10/11 07:38:50;;;;;;;5.50;3.67;;;;;;;-145.23;100.00;58621.06;5004862;28;20229;-50
2022/10/11 07:41:18;;;;;;;5.73;3.40;;;;;;;-145.23;100.00;58621.06;5002737;28;20323;-51
2022/10/11 07:43:46;;;;;;;7.00;3.30;;;;;;;-145.23;100.00;58621.06;5004543;28;20499;-51
2022/10/11 07:46:13;;;;;;;8.00;3.80;;;;;;;-145.23;100.00;58621.06;5003636;28;20236;-53
2022/10/11 07:48:40;;;;;;;7.03;3.47;;;;;;;-145.23;100.00;58621.06;5010447;28;20232;-51
2022/10/11 07:51:08;;;;;;;13.50;4.00;;;;;;;-145.23;100.00;58621.06;5025281;28;20243;-52
2022/10/11 07:53:40;;;;;;;7.97;3.30;;;;;;;-145.23;100.00;58621.06;5022748;28;20233;-53
2022/10/11 07:56:08;;;;;;;6.97;3.30;;;;;;;-145.23;100.00;58621.06;5002756;28;20680;-52
2022/10/11 07:58:36;;;;;;;5.83;2.73;;;;;;;-145.23;100.00;58621.06;5001246;28;20267;-53
2022/10/11 08:01:03;;;;;;;7.90;3.53;;;;;;;-145.23;100.00;58621.06;5005999;28;20266;-53
2022/10/11 08:03:30;;;;;;;6.37;3.27;;;;;;;-145.23;100.00;58621.06;5024441;28;20236;-52
2022/10/11 08:06:00;;;;;;;8.33;3.10;;;;;;;-145.23;100.00;58621.06;5006816;28;20634;-52
2022/10/11 08:08:27;;;;;;;6.23;3.13;;;;;;;-145.23;100.00;58621.06;5002919;28;20225;-51
2022/10/11 08:10:54;;;;;;;5.87;2.27;;;;;;;-145.23;100.00;58621.06;5002996;28;20241;-51
2022/10/11 08:13:21;;;;;;;9.23;3.77;;;;;;;-145.23;100.00;58621.06;4995419;28;20242;-51
2022/10/11 08:15:49;;;;;;;6.57;3.10;;;;;;;-145.23;100.00;58621.06;4990115;28;20233;-52
2022/10/11 08:18:16;;;;;;;4.03;2.47;;;;;;;-145.23;100.00;58621.06;5004235;28;20237;-51
2022/10/11 08:20:43;;;;;;;8.07;4.17;;;;;;;-145.23;100.00;58621.06;5007727;28;20275;-51
2022/10/11 08:23:09;;;;;;;7.63;3.22;;;;;;;-145.23;100.00;58621.06;5015421;28;20237;-52
2022/10/11 08:25:38;;;;;;;9.33;3.20;;;;;;;-145.23;100.00;58621.06;5002318;28;20238;-51
2022/10/11 08:28:05;;;;;;;9.40;3.40;;;;;;;-145.23;100.00;58621.06;4998911;28;20236;-51
2022/10/11 08:30:33;;;;;;;8.07;3.22;;;;;;;-145.23;100.00;58621.06;5001063;28;20249;-51
2022/10/11 08:33:01;;;;;;;6.63;3.25;;;;;;;-145.23;100.00;58621.06;5002754;28;20237;-51
2022/10/11 08:35:28;;;;;;;5.97;2.38;;;;;;;-145.23;100.00;58621.06;5006335;28;20244;-53
2022/10/11 08:37:55;;;;;;;8.52;3.38;;;;;;;-145.23;100.00;58621.06;5000883;28;20221;-51
2022/10/11 08:40:22;;;;;;;6.68;2.85;;;;;;;-145.23;100.00;58621.06;5003865;28;20558;-52
2022/10/11 08:42:55;;;;;;;13.98;4.13;;;;;;;-145.23;100.00;58621.06;5000484;28;20232;-51
2022/10/11 08:45:29;;;;;;;14.02;6.63;;;;;;;-145.23;100.00;58621.06;4994845;28;20724;-53
2022/10/11 08:48:09;;;;;;;6.60;3.00;;;;;;;-145.23;100.00;58621.06;5015850;28;20227;-51
2022/10/11 08:50:36;;;;;;;8.18;2.47;;;;;;;-145.23;100.00;58621.06;5012738;28;20236;-54
2022/10/11 08:53:06;;;;;;;6.47;2.45;;;;;;;-145.23;100.00;58621.06;5015620;28;20754;-52
2022/10/11 08:55:38;;;;;;;11.43;3.65;;;;;;;-145.23;100.00;58621.06;5022932;28;20772;-55
2022/10/11 08:58:05;;;;;;;6.28;3.53;;;;;;;-145.23;100.00;58621.06;5014040;28;20256;-52
2022/10/11 09:00:33;;;;;;;6.93;2.42;;;;;;;-145.23;100.00;58621.06;5013159;28;20327;-52
2022/10/11 09:03:04;;;;;;;7.65;2.88;;;;;;;-145.23;100.00;58621.06;5025153;28;20529;-51
2022/10/11 09:05:35;;;;;;;7.97;3.15;;;;;;;-145.23;100.00;58621.06;5005136;28;20251;-52
2022/10/11 09:08:08;;;;;;;7.35;3.17;;;;;;;-145.23;100.00;58621.06;5003311;28;20237;-51
2022/10/11 09:10:52;;;;;;;5.55;3.03;;;;;;;-145.23;100.00;58621.06;5006417;28;20298;-50
2022/10/11 09:13:33;;;;;;;8.80;3.08;;;;;;;-145.23;100.00;58621.06;5000551;28;20320;-52
2022/10/11 09:16:05;;;;;;;6.32;2.30;;;;;;;-145.23;100.00;58621.06;5009675;28;20805;-51
2022/10/11 09:18:47;;;;;;;5.05;3.10;;;;;;;-145.23;100.00;58621.06;5001481;28;20608;-52
2022/10/11 09:21:25;;;;;;;7.43;2.60;;;;;;;-145.23;100.00;58621.06;5004748;28;20230;-53
2022/10/11 09:24:07;;;;;;;7.85;2.45;;;;;;;-145.23;100.00;58621.06;5009264;28;20233;-51
2022/10/11 09:26:37;;;;;;;5.28;2.22;;;;;;;-145.23;100.00;58621.06;5008393;28;20242;-51
2022/10/11 09:29:08;;;;;;;8.13;2.53;;;;;;;-145.23;100.00;58621.06;5002659;28;20243;-50
2022/10/11 09:31:34;;;;;;;5.45;2.13;;;;;;;-145.23;100.00;58621.06;4998557;28;20314;-51
2022/10/11 09:34:10;;;;;;;7.10;3.17;;;;;;;-145.23;100.00;58621.06;5003319;28;20712;-51
2022/10/11 09:36:43;;;;;;;9.48;3.20;;;;;;;-145.23;100.00;58621.06;5005384;28;20240;-51
2022/10/11 09:39:20;;;;;;;6.50;2.65;;;;;;;-145.23;100.00;58621.06;5007726;28;20237;-51
2022/10/11 09:41:51;;;;;;;9.27;2.33;;;;;;;-145.23;100.00;58621.06;5005443;28;20239;-51
2022/10/11 09:44:22;;;;;;;7.32;2.38;;;;;;;-145.23;100.00;58621.06;5030923;28;20235;-52
2022/10/11 09:46:49;;;;;;;7.78;2.63;;;;;;;-145.23;100.00;58621.06;5027218;28;20228;-51
2022/10/11 09:49:18;;;;;;;6.88;2.15;;;;;;;-145.23;100.00;58621.06;5021095;28;20236;-52
2022/10/11 09:51:49;;;;;;;7.50;2.00;;;;;;;-145.23;100.00;58621.06;5013115;28;20234;-50
2022/10/11 09:54:19;;;;;;;5.90;2.47;;;;;;;-145.23;100.00;58621.06;5002817;28;20238;-53
2022/10/11 09:56:46;;;;;;;3.42;1.88;;;;;;;-145.23;100.00;58621.06;5010645;28;20517;-52
2022/10/11 09:59:24;;;;;;;7.95;2.38;;;;;;;-145.23;100.00;58621.06;5014039;28;20243;-52
2022/10/11 10:02:07;;;;;;;8.55;2.08;;;;;;;-145.23;100.00;58621.06;5014811;28;20241;-53
2022/10/11 10:04:34;;;;;;;7.10;2.85;;;;;;;-145.23;100.00;58621.06;5025539;28;20240;-52
2022/10/11 10:07:11;;;;;;;4.50;2.35;;;;;;;-145.23;100.00;58621.06;5029367;28;20232;-52
2022/10/11 10:09:38;;;;;;;6.38;2.08;;;;;;;-145.23;100.00;58621.06;5025932;28;20232;-52
2022/10/11 10:12:11;;;;;;;2.90;1.80;;;;;;;-145.23;100.00;58621.06;5033194;28;20235;-52
2022/10/11 10:14:38;;;;;;;5.75;2.10;;;;;;;-145.23;100.00;58621.06;5032931;28;20244;-52
2022/10/11 10:17:07;;;;;;;8.20;2.35;;;;;;;-145.23;100.00;58621.06;5002576;28;20317;-51
2022/10/11 10:19:40;;;;;;;9.23;2.17;;;;;;;-145.23;100.00;58621.06;4988127;28;20253;-52
2022/10/11 10:22:16;;;;;;;5.80;2.15;;;;;;;-145.23;100.00;58621.06;5012096;28;20322;-51
2022/10/11 10:24:42;;;;;;;7.43;1.73;;;;;;;-145.23;100.00;58621.06;5021027;28;20237;-51
2022/10/11 10:27:16;;;;;;;4.97;2.28;;;;;;;-145.23;100.00;58621.06;5006726;28;20230;-51
2022/10/11 10:29:44;;;;;;;7.38;3.10;;;;;;;-145.23;100.00;58621.06;5026347;28;20820;-52
2022/10/11 10:32:12;;;;;;;5.47;1.92;;;;;;;-145.23;100.00;58621.06;5022819;28;20240;-52
2022/10/11 10:34:46;;;;;;;5.97;2.03;;;;;;;-145.23;100.00;58621.06;5019934;28;20245;-50
2022/10/11 10:37:20;;;;;;;6.05;2.63;;;;;;;-145.23;100.00;58621.06;5021520;28;20327;-52
2022/10/11 10:39:48;;;;;;;5.80;1.92;;;;;;;-145.23;100.00;58621.06;5029612;28;20327;-51
2022/10/11 10:42:17;;;;;;;7.15;2.25;;;;;;;-145.23;100.00;58621.06;5028505;28;20875;-52
2022/10/11 10:44:44;;;;;;;6.40;2.10;;;;;;;-145.23;100.00;58621.06;5026871;28;20255;-52
2022/10/11 10:47:19;;;;;;;4.20;2.08;;;;;;;-145.23;100.00;58621.06;5038036;28;20270;-52
2022/10/11 10:49:50;;;;;;;5.72;1.52;;;;;;;-145.23;100.00;58621.06;5024564;28;20885;-52
2022/10/11 10:52:48;;;;;;;4.90;1.13;;;;;;;-145.23;100.00;58621.06;5036183;28;20913;-52
2022/10/11 10:55:22;;;;;;;6.25;1.48;;;;;;;-145.23;100.00;58621.06;5024218;28;20228;-52
2022/10/11 10:58:00;;;;;;;3.70;1.77;;;;;;;-145.23;100.00;58621.06;5021566;28;20254;-52
2022/10/11 11:00:31;;;;;;;5.22;1.95;;;;;;;-145.23;100.00;58621.06;5034071;28;20239;-52
2022/10/11 11:03:00;;;;;;;4.50;1.70;;;;;;;-145.23;100.00;58621.06;5032279;28;20227;-51
2022/10/11 11:05:35;;;;;;;7.07;1.85;;;;;;;-145.23;100.00;58621.06;5015409;28;20245;-50
2022/10/11 11:08:08;;;;;;;5.13;1.85;;;;;;;-145.23;100.00;58621.06;5008674;28;20237;-51
2022/10/11 11:10:38;;;;;;;5.70;2.10;;;;;;;-145.23;100.00;58621.06;5011397;28;20229;-51
2022/10/11 11:13:18;;;;;;;5.63;1.65;;;;;;;-145.23;100.00;58621.06;5021692;28;20251;-52
2022/10/11 11:15:50;;;;;;;6.25;2.15;;;;;;;-145.23;100.00;58621.06;5004240;28;20328;-52
2022/10/11 11:18:27;;;;;;;8.20;2.65;;;;;;;-145.23;100.00;58621.06;5017015;28;20542;-51
2022/10/11 11:21:05;;;;;;;7.20;2.38;;;;;;;-145.23;100.00;58621.06;5014426;28;20233;-51